sensor_id;sensor_type;location;lat;lon;timestamp;temperature;humidity
12815;DHT22;6472;52.328;13.070;2022-10-26T00:00:33;6.00;99.90
12815;DHT22;6472;52.328;13.070;2022-10-26T00:03:01;6.00;99.90
12815;DHT22;6472;52.328;13.070;2022-10-26T00:05:32;6.00;99.90
12815;DHT22;6472;52.328;13.070;2022-10-26T00:08:00;6.00;99.90
12815;DHT22;6472;52.328;13.070;2022-10-26T00:10:29;6.00;99.90
12815;DHT22;6472;52.328;13.070;2022-10-26T00:12:57;6.00;99.90
12815;DHT22;6472;52.328;13.070;2022-10-26T00:15:27;6.00;99.90
12815;DHT22;6472;52.328;13.070;2022-10-26T00:17:55;6.00;99.90
12815;DHT22;6472;52.328;13.070;2022-10-26T00:20:23;5.90;99.90
12815;DHT22;6472;52.328;13.070;2022-10-26T00:22:51;5.90;99.90
12815;DHT22;6472;52.328;13.070;2022-10-26T00:25:19;5.90;99.90
12815;DHT22;6472;52.328;13.070;2022-10-26T00:27:47;5.90;99.90
12815;DHT22;6472;52.328;13.070;2022-10-26T00:30:15;5.90;99.90
12815;DHT22;6472;52.328;13.070;2022-10-26T00:32:44;5.90;99.90
12815;DHT22;6472;52.328;13.070;2022-10-26T00:35:12;5.90;99.90
12815;DHT22;6472;52.328;13.070;2022-10-26T00:37:55;5.90;99.90
12815;DHT22;6472;52.328;13.070;2022-10-26T00:40:26;5.90;99.90
12815;DHT22;6472;52.328;13.070;2022-10-26T00:42:55;5.90;99.90
12815;DHT22;6472;52.328;13.070;2022-10-26T00:45:25;5.90;99.90
12815;DHT22;6472;52.328;13.070;2022-10-26T00:47:58;5.90;99.90
12815;DHT22;6472;52.328;13.070;2022-10-26T00:50:32;5.80;99.90
12815;DHT22;6472;52.328;13.070;2022-10-26T00:53:02;5.80;99.90
12815;DHT22;6472;52.328;13.070;2022-10-26T00:55:33;5.80;99.90
12815;DHT22;6472;52.328;13.070;2022-10-26T00:58:03;5.80;99.90
12815;DHT22;6472;52.328;13.070;2022-10-26T01:00:33;5.80;99.90
12815;DHT22;6472;52.328;13.070;2022-10-26T01:03:05;5.70;99.90
12815;DHT22;6472;52.328;13.070;2022-10-26T01:05:35;5.80;99.90
12815;DHT22;6472;52.328;13.070;2022-10-26T01:08:05;5.80;99.90
12815;DHT22;6472;52.328;13.070;2022-10-26T01:10:35;5.70;99.90
12815;DHT22;6472;52.328;13.070;2022-10-26T01:13:03;5.70;99.90
12815;DHT22;6472;52.328;13.070;2022-10-26T01:15:40;5.70;99.90
12815;DHT22;6472;52.328;13.070;2022-10-26T01:18:18;5.70;99.90
12815;DHT22;6472;52.328;13.070;2022-10-26T01:21:07;5.60;99.90
12815;DHT22;6472;52.328;13.070;2022-10-26T01:23:57;5.60;99.90
12815;DHT22;6472;52.328;13.070;2022-10-26T01:26:42;5.50;99.90
12815;DHT22;6472;52.328;13.070;2022-10-26T01:29:33;5.60;99.90
12815;DHT22;6472;52.328;13.070;2022-10-26T01:32:10;5.60;99.90
12815;DHT22;6472;52.328;13.070;2022-10-26T01:34:43;5.60;99.90
12815;DHT22;6472;52.328;13.070;2022-10-26T01:37:16;5.50;99.90
12815;DHT22;6472;52.328;13.070;2022-10-26T01:39:50;5.60;99.90
12815;DHT22;6472;52.328;13.070;2022-10-26T01:42:21;5.50;99.90
12815;DHT22;6472;52.328;13.070;2022-10-26T01:44:54;5.50;99.90
12815;DHT22;6472;52.328;13.070;2022-10-26T01:47:25;5.50;99.90
12815;DHT22;6472;52.328;13.070;2022-10-26T01:49:55;5.50;99.90
12815;DHT22;6472;52.328;13.070;2022-10-26T01:52:25;5.40;99.90
12815;DHT22;6472;52.328;13.070;2022-10-26T01:54:59;5.40;99.90
12815;DHT22;6472;52.328;13.070;2022-10-26T01:57:31;5.40;99.90
12815;DHT22;6472;52.328;13.070;2022-10-26T02:00:03;5.40;99.90
12815;DHT22;6472;52.328;13.070;2022-10-26T02:02:51;5.40;99.90
12815;DHT22;6472;52.328;13.070;2022-10-26T02:05:31;5.30;99.90
12815;DHT22;6472;52.328;13.070;2022-10-26T02:08:19;5.30;99.90
12815;DHT22;6472;52.328;13.070;2022-10-26T02:10:58;5.30;99.90
12815;DHT22;6472;52.328;13.070;2022-10-26T02:13:34;5.30;99.90
12815;DHT22;6472;52.328;13.070;2022-10-26T02:16:10;5.30;99.90
12815;DHT22;6472;52.328;13.070;2022-10-26T02:18:49;5.20;99.90
12815;DHT22;6472;52.328;13.070;2022-10-26T02:21:21;5.20;99.90
12815;DHT22;6472;52.328;13.070;2022-10-26T02:23:54;5.20;99.90
12815;DHT22;6472;52.328;13.070;2022-10-26T02:26:26;5.20;99.90
12815;DHT22;6472;52.328;13.070;2022-10-26T02:29:00;5.20;99.90
12815;DHT22;6472;52.328;13.070;2022-10-26T02:31:30;5.10;99.90
12815;DHT22;6472;52.328;13.070;2022-10-26T02:34:04;5.20;99.90
12815;DHT22;6472;52.328;13.070;2022-10-26T02:36:35;5.20;99.90
12815;DHT22;6472;52.328;13.070;2022-10-26T02:39:07;5.10;99.90
12815;DHT22;6472;52.328;13.070;2022-10-26T02:41:39;5.10;99.90
12815;DHT22;6472;52.328;13.070;2022-10-26T02:44:22;5.10;99.90
12815;DHT22;6472;52.328;13.070;2022-10-26T02:46:52;5.10;99.90
12815;DHT22;6472;52.328;13.070;2022-10-26T02:49:21;5.10;99.90
12815;DHT22;6472;52.328;13.070;2022-10-26T02:51:53;5.10;99.90
12815;DHT22;6472;52.328;13.070;2022-10-26T02:58:12;5.10;99.90
12815;DHT22;6472;52.328;13.070;2022-10-26T03:00:41;5.10;99.90
12815;DHT22;6472;52.328;13.070;2022-10-26T03:03:10;5.20;99.90
12815;DHT22;6472;52.328;13.070;2022-10-26T03:05:41;5.20;99.90
12815;DHT22;6472;52.328;13.070;2022-10-26T03:08:09;5.20;99.90
12815;DHT22;6472;52.328;13.070;2022-10-26T03:10:40;5.20;99.90
12815;DHT22;6472;52.328;13.070;2022-10-26T03:13:09;5.20;99.90
12815;DHT22;6472;52.328;13.070;2022-10-26T03:15:38;5.20;99.90
12815;DHT22;6472;52.328;13.070;2022-10-26T03:18:07;5.20;99.90
12815;DHT22;6472;52.328;13.070;2022-10-26T03:20:35;5.20;99.90
12815;DHT22;6472;52.328;13.070;2022-10-26T03:23:04;5.20;99.90
12815;DHT22;6472;52.328;13.070;2022-10-26T03:25:32;5.10;99.90
12815;DHT22;6472;52.328;13.070;2022-10-26T03:28:02;5.10;99.90
12815;DHT22;6472;52.328;13.070;2022-10-26T03:30:31;5.10;99.90
12815;DHT22;6472;52.328;13.070;2022-10-26T03:32:59;5.10;99.90
12815;DHT22;6472;52.328;13.070;2022-10-26T03:35:27;5.10;99.90
12815;DHT22;6472;52.328;13.070;2022-10-26T03:37:55;5.10;99.90
12815;DHT22;6472;52.328;13.070;2022-10-26T03:40:24;5.10;99.90
12815;DHT22;6472;52.328;13.070;2022-10-26T03:42:52;5.00;99.90
12815;DHT22;6472;52.328;13.070;2022-10-26T03:45:20;5.00;99.90
12815;DHT22;6472;52.328;13.070;2022-10-26T03:47:48;5.00;99.90
12815;DHT22;6472;52.328;13.070;2022-10-26T03:50:19;5.00;99.90
12815;DHT22;6472;52.328;13.070;2022-10-26T03:52:48;5.00;99.90
12815;DHT22;6472;52.328;13.070;2022-10-26T03:55:16;5.00;99.90
12815;DHT22;6472;52.328;13.070;2022-10-26T03:57:46;4.90;99.90
12815;DHT22;6472;52.328;13.070;2022-10-26T04:00:15;4.90;99.90
12815;DHT22;6472;52.328;13.070;2022-10-26T04:02:45;4.90;99.90
12815;DHT22;6472;52.328;13.070;2022-10-26T04:05:14;4.90;99.90
12815;DHT22;6472;52.328;13.070;2022-10-26T04:07:42;4.90;99.90
12815;DHT22;6472;52.328;13.070;2022-10-26T04:10:10;4.90;99.90
12815;DHT22;6472;52.328;13.070;2022-10-26T04:12:38;4.90;99.90
12815;DHT22;6472;52.328;13.070;2022-10-26T04:15:08;4.90;99.90
12815;DHT22;6472;52.328;13.070;2022-10-26T04:17:36;4.90;99.90
12815;DHT22;6472;52.328;13.070;2022-10-26T04:20:05;4.90;99.90
12815;DHT22;6472;52.328;13.070;2022-10-26T04:22:34;4.90;99.90
12815;DHT22;6472;52.328;13.070;2022-10-26T04:25:02;4.90;99.90
12815;DHT22;6472;52.328;13.070;2022-10-26T04:27:30;4.80;99.90
12815;DHT22;6472;52.328;13.070;2022-10-26T04:29:58;4.80;99.90
12815;DHT22;6472;52.328;13.070;2022-10-26T04:32:27;4.80;99.90
12815;DHT22;6472;52.328;13.070;2022-10-26T04:34:55;4.80;99.90
12815;DHT22;6472;52.328;13.070;2022-10-26T04:37:23;4.80;99.90
12815;DHT22;6472;52.328;13.070;2022-10-26T04:39:51;4.80;99.90
12815;DHT22;6472;52.328;13.070;2022-10-26T04:42:19;4.80;99.90
12815;DHT22;6472;52.328;13.070;2022-10-26T04:44:47;4.80;99.90
12815;DHT22;6472;52.328;13.070;2022-10-26T04:47:21;4.80;99.90
12815;DHT22;6472;52.328;13.070;2022-10-26T04:50:28;4.80;99.90
12815;DHT22;6472;52.328;13.070;2022-10-26T04:53:15;4.70;99.90
12815;DHT22;6472;52.328;13.070;2022-10-26T04:56:06;4.70;99.90
12815;DHT22;6472;52.328;13.070;2022-10-26T04:58:33;4.70;99.90
12815;DHT22;6472;52.328;13.070;2022-10-26T05:01:01;4.70;99.90
12815;DHT22;6472;52.328;13.070;2022-10-26T05:03:30;4.70;99.90
12815;DHT22;6472;52.328;13.070;2022-10-26T05:05:59;4.70;99.90
12815;DHT22;6472;52.328;13.070;2022-10-26T05:08:27;4.70;99.90
12815;DHT22;6472;52.328;13.070;2022-10-26T05:10:56;4.70;99.90
12815;DHT22;6472;52.328;13.070;2022-10-26T05:13:24;4.70;99.90
12815;DHT22;6472;52.328;13.070;2022-10-26T05:15:53;4.70;99.90
12815;DHT22;6472;52.328;13.070;2022-10-26T05:18:20;4.70;99.90
12815;DHT22;6472;52.328;13.070;2022-10-26T05:20:51;4.60;99.90
12815;DHT22;6472;52.328;13.070;2022-10-26T05:23:21;4.70;99.90
12815;DHT22;6472;52.328;13.070;2022-10-26T05:25:49;4.60;99.90
12815;DHT22;6472;52.328;13.070;2022-10-26T05:28:17;4.60;99.90
12815;DHT22;6472;52.328;13.070;2022-10-26T05:30:46;4.60;99.90
12815;DHT22;6472;52.328;13.070;2022-10-26T05:33:13;4.60;99.90
12815;DHT22;6472;52.328;13.070;2022-10-26T05:35:42;4.60;99.90
12815;DHT22;6472;52.328;13.070;2022-10-26T05:38:12;4.60;99.90
12815;DHT22;6472;52.328;13.070;2022-10-26T05:40:47;4.60;99.90
12815;DHT22;6472;52.328;13.070;2022-10-26T05:43:15;4.60;99.90
12815;DHT22;6472;52.328;13.070;2022-10-26T05:45:43;4.50;99.90
12815;DHT22;6472;52.328;13.070;2022-10-26T05:48:11;4.50;99.90
12815;DHT22;6472;52.328;13.070;2022-10-26T05:50:39;4.50;99.90
12815;DHT22;6472;52.328;13.070;2022-10-26T05:53:07;4.50;99.90
12815;DHT22;6472;52.328;13.070;2022-10-26T05:55:36;4.50;99.90
12815;DHT22;6472;52.328;13.070;2022-10-26T05:58:10;4.50;99.90
12815;DHT22;6472;52.328;13.070;2022-10-26T06:00:46;4.50;99.90
12815;DHT22;6472;52.328;13.070;2022-10-26T06:03:25;4.50;99.90
12815;DHT22;6472;52.328;13.070;2022-10-26T06:05:59;4.50;99.90
12815;DHT22;6472;52.328;13.070;2022-10-26T06:08:32;4.50;99.90
12815;DHT22;6472;52.328;13.070;2022-10-26T06:11:01;4.50;99.90
12815;DHT22;6472;52.328;13.070;2022-10-26T06:13:31;4.50;99.90
12815;DHT22;6472;52.328;13.070;2022-10-26T06:16:13;4.50;99.90
12815;DHT22;6472;52.328;13.070;2022-10-26T06:18:49;4.40;99.90
12815;DHT22;6472;52.328;13.070;2022-10-26T06:21:39;4.50;99.90
12815;DHT22;6472;52.328;13.070;2022-10-26T06:24:13;4.50;99.90
12815;DHT22;6472;52.328;13.070;2022-10-26T06:26:51;4.50;99.90
12815;DHT22;6472;52.328;13.070;2022-10-26T06:29:30;4.50;99.90
12815;DHT22;6472;52.328;13.070;2022-10-26T06:32:03;4.50;99.90
12815;DHT22;6472;52.328;13.070;2022-10-26T06:34:33;4.50;99.90
12815;DHT22;6472;52.328;13.070;2022-10-26T06:37:03;4.50;99.90
12815;DHT22;6472;52.328;13.070;2022-10-26T06:39:35;4.50;99.90
12815;DHT22;6472;52.328;13.070;2022-10-26T06:42:08;4.60;99.90
12815;DHT22;6472;52.328;13.070;2022-10-26T06:44:39;4.60;99.90
12815;DHT22;6472;52.328;13.070;2022-10-26T06:47:11;4.60;99.90
12815;DHT22;6472;52.328;13.070;2022-10-26T06:49:56;4.60;99.90
12815;DHT22;6472;52.328;13.070;2022-10-26T06:52:31;4.70;99.90
12815;DHT22;6472;52.328;13.070;2022-10-26T06:55:02;4.70;99.90
12815;DHT22;6472;52.328;13.070;2022-10-26T06:57:34;4.70;99.90
12815;DHT22;6472;52.328;13.070;2022-10-26T07:00:13;4.70;99.90
12815;DHT22;6472;52.328;13.070;2022-10-26T07:02:43;4.80;99.90
12815;DHT22;6472;52.328;13.070;2022-10-26T07:05:11;4.80;99.90
12815;DHT22;6472;52.328;13.070;2022-10-26T07:07:41;4.90;99.90
12815;DHT22;6472;52.328;13.070;2022-10-26T07:10:10;5.00;99.90
12815;DHT22;6472;52.328;13.070;2022-10-26T07:12:38;5.10;99.90
12815;DHT22;6472;52.328;13.070;2022-10-26T07:15:08;5.20;99.90
12815;DHT22;6472;52.328;13.070;2022-10-26T07:17:42;5.20;99.90
12815;DHT22;6472;52.328;13.070;2022-10-26T07:20:11;5.30;99.90
12815;DHT22;6472;52.328;13.070;2022-10-26T07:22:39;5.40;99.90
12815;DHT22;6472;52.328;13.070;2022-10-26T07:25:09;5.40;99.90
12815;DHT22;6472;52.328;13.070;2022-10-26T07:27:37;5.60;99.90
12815;DHT22;6472;52.328;13.070;2022-10-26T07:30:08;5.60;99.90
12815;DHT22;6472;52.328;13.070;2022-10-26T07:32:37;5.70;99.90
12815;DHT22;6472;52.328;13.070;2022-10-26T07:35:05;5.90;99.90
12815;DHT22;6472;52.328;13.070;2022-10-26T07:37:33;6.00;99.90
12815;DHT22;6472;52.328;13.070;2022-10-26T07:40:01;6.10;99.90
12815;DHT22;6472;52.328;13.070;2022-10-26T07:42:32;6.20;99.90
12815;DHT22;6472;52.328;13.070;2022-10-26T07:45:03;6.30;99.90
12815;DHT22;6472;52.328;13.070;2022-10-26T07:47:32;6.40;99.90
12815;DHT22;6472;52.328;13.070;2022-10-26T07:50:01;6.60;99.90
12815;DHT22;6472;52.328;13.070;2022-10-26T07:52:30;6.70;99.90
12815;DHT22;6472;52.328;13.070;2022-10-26T07:55:00;6.90;99.90
12815;DHT22;6472;52.328;13.070;2022-10-26T07:57:28;7.10;99.90
12815;DHT22;6472;52.328;13.070;2022-10-26T07:59:56;7.30;99.90
12815;DHT22;6472;52.328;13.070;2022-10-26T08:02:24;7.50;99.90
12815;DHT22;6472;52.328;13.070;2022-10-26T08:04:54;7.70;99.90
12815;DHT22;6472;52.328;13.070;2022-10-26T08:07:22;8.00;99.90
12815;DHT22;6472;52.328;13.070;2022-10-26T08:09:51;8.30;99.90
12815;DHT22;6472;52.328;13.070;2022-10-26T08:12:20;8.60;99.90
12815;DHT22;6472;52.328;13.070;2022-10-26T08:14:47;9.00;99.90
12815;DHT22;6472;52.328;13.070;2022-10-26T08:17:15;9.50;99.90
12815;DHT22;6472;52.328;13.070;2022-10-26T08:19:46;9.90;99.90
12815;DHT22;6472;52.328;13.070;2022-10-26T08:22:15;10.20;99.90
12815;DHT22;6472;52.328;13.070;2022-10-26T08:24:44;10.60;99.90
12815;DHT22;6472;52.328;13.070;2022-10-26T08:27:12;11.00;99.90
12815;DHT22;6472;52.328;13.070;2022-10-26T08:29:41;11.30;99.90
12815;DHT22;6472;52.328;13.070;2022-10-26T08:32:09;11.60;99.90
12815;DHT22;6472;52.328;13.070;2022-10-26T08:34:37;11.80;99.90
12815;DHT22;6472;52.328;13.070;2022-10-26T08:37:05;12.10;99.90
12815;DHT22;6472;52.328;13.070;2022-10-26T08:39:34;12.40;99.90
12815;DHT22;6472;52.328;13.070;2022-10-26T08:42:05;12.70;99.90
12815;DHT22;6472;52.328;13.070;2022-10-26T08:44:38;12.90;99.90
12815;DHT22;6472;52.328;13.070;2022-10-26T08:47:15;13.20;99.90
12815;DHT22;6472;52.328;13.070;2022-10-26T08:49:53;13.30;99.90
12815;DHT22;6472;52.328;13.070;2022-10-26T08:52:43;13.20;99.90
12815;DHT22;6472;52.328;13.070;2022-10-26T08:55:18;13.30;99.90
12815;DHT22;6472;52.328;13.070;2022-10-26T08:57:49;13.50;99.90
12815;DHT22;6472;52.328;13.070;2022-10-26T09:00:19;13.60;99.90
12815;DHT22;6472;52.328;13.070;2022-10-26T09:02:48;13.80;99.90
12815;DHT22;6472;52.328;13.070;2022-10-26T09:05:22;14.10;99.90
12815;DHT22;6472;52.328;13.070;2022-10-26T09:07:55;14.30;99.90
12815;DHT22;6472;52.328;13.070;2022-10-26T09:10:38;14.40;99.90
12815;DHT22;6472;52.328;13.070;2022-10-26T09:13:17;14.60;99.90
12815;DHT22;6472;52.328;13.070;2022-10-26T09:15:58;14.80;99.90
12815;DHT22;6472;52.328;13.070;2022-10-26T09:18:38;14.90;99.90
12815;DHT22;6472;52.328;13.070;2022-10-26T09:21:20;15.00;99.90
12815;DHT22;6472;52.328;13.070;2022-10-26T09:24:00;15.00;99.90
12815;DHT22;6472;52.328;13.070;2022-10-26T09:26:36;15.00;99.90
12815;DHT22;6472;52.328;13.070;2022-10-26T09:29:10;15.00;99.90
12815;DHT22;6472;52.328;13.070;2022-10-26T09:31:40;15.00;99.90
12815;DHT22;6472;52.328;13.070;2022-10-26T09:34:18;15.00;99.90
12815;DHT22;6472;52.328;13.070;2022-10-26T09:36:52;15.00;99.90
12815;DHT22;6472;52.328;13.070;2022-10-26T09:39:25;15.00;99.90
12815;DHT22;6472;52.328;13.070;2022-10-26T09:42:01;15.10;99.90
12815;DHT22;6472;52.328;13.070;2022-10-26T09:44:35;15.10;99.90
12815;DHT22;6472;52.328;13.070;2022-10-26T09:47:06;15.10;99.90
12815;DHT22;6472;52.328;13.070;2022-10-26T09:49:40;15.10;99.90
12815;DHT22;6472;52.328;13.070;2022-10-26T09:52:11;15.20;99.90
12815;DHT22;6472;52.328;13.070;2022-10-26T09:54:39;15.30;99.90
12815;DHT22;6472;52.328;13.070;2022-10-26T09:57:09;15.30;99.90
12815;DHT22;6472;52.328;13.070;2022-10-26T09:59:41;15.40;99.90
12815;DHT22;6472;52.328;13.070;2022-10-26T10:02:33;15.30;99.90
12815;DHT22;6472;52.328;13.070;2022-10-26T10:05:17;15.30;99.90
12815;DHT22;6472;52.328;13.070;2022-10-26T10:08:10;15.40;99.90
12815;DHT22;6472;52.328;13.070;2022-10-26T10:10:53;15.50;99.90
12815;DHT22;6472;52.328;13.070;2022-10-26T10:13:24;15.60;99.90
12815;DHT22;6472;52.328;13.070;2022-10-26T10:16:00;15.60;99.90
12815;DHT22;6472;52.328;13.070;2022-10-26T10:18:29;15.70;99.90
12815;DHT22;6472;52.328;13.070;2022-10-26T10:21:00;15.60;99.90
12815;DHT22;6472;52.328;13.070;2022-10-26T10:23:30;15.60;99.90
12815;DHT22;6472;52.328;13.070;2022-10-26T10:26:01;15.50;99.90
12815;DHT22;6472;52.328;13.070;2022-10-26T10:28:31;15.50;99.90
12815;DHT22;6472;52.328;13.070;2022-10-26T10:31:01;15.40;99.90
12815;DHT22;6472;52.328;13.070;2022-10-26T10:33:34;15.40;99.90
12815;DHT22;6472;52.328;13.070;2022-10-26T10:36:05;15.30;99.90
12815;DHT22;6472;52.328;13.070;2022-10-26T10:38:38;15.30;99.90
12815;DHT22;6472;52.328;13.070;2022-10-26T10:41:15;15.30;99.90
12815;DHT22;6472;52.328;13.070;2022-10-26T10:43:47;15.20;99.90
12815;DHT22;6472;52.328;13.070;2022-10-26T10:46:22;15.20;99.90
12815;DHT22;6472;52.328;13.070;2022-10-26T10:48:54;15.30;99.90
12815;DHT22;6472;52.328;13.070;2022-10-26T10:51:29;15.30;99.90
12815;DHT22;6472;52.328;13.070;2022-10-26T10:53:58;15.30;99.90
12815;DHT22;6472;52.328;13.070;2022-10-26T10:56:33;15.40;99.90
12815;DHT22;6472;52.328;13.070;2022-10-26T11:02:28;15.30;99.90
12815;DHT22;6472;52.328;13.070;2022-10-26T11:05:11;15.30;99.90
12815;DHT22;6472;52.328;13.070;2022-10-26T11:07:54;15.30;99.90
12815;DHT22;6472;52.328;13.070;2022-10-26T11:10:27;15.30;99.90
12815;DHT22;6472;52.328;13.070;2022-10-26T11:12:59;15.40;99.90
12815;DHT22;6472;52.328;13.070;2022-10-26T11:15:33;15.40;99.90
12815;DHT22;6472;52.328;13.070;2022-10-26T11:18:07;15.40;99.90
12815;DHT22;6472;52.328;13.070;2022-10-26T11:20:41;15.40;99.90
12815;DHT22;6472;52.328;13.070;2022-10-26T11:23:18;15.40;99.90
12815;DHT22;6472;52.328;13.070;2022-10-26T11:25:50;15.50;99.90
12815;DHT22;6472;52.328;13.070;2022-10-26T11:28:30;15.60;99.90
12815;DHT22;6472;52.328;13.070;2022-10-26T11:31:06;15.70;99.90
12815;DHT22;6472;52.328;13.070;2022-10-26T11:33:40;15.70;99.90
12815;DHT22;6472;52.328;13.070;2022-10-26T11:36:12;15.80;99.90
12815;DHT22;6472;52.328;13.070;2022-10-26T11:38:51;15.90;99.90
12815;DHT22;6472;52.328;13.070;2022-10-26T11:41:25;15.90;99.90
12815;DHT22;6472;52.328;13.070;2022-10-26T11:44:02;16.00;99.90
12815;DHT22;6472;52.328;13.070;2022-10-26T11:46:36;16.00;99.90
12815;DHT22;6472;52.328;13.070;2022-10-26T11:49:13;16.10;99.90
12815;DHT22;6472;52.328;13.070;2022-10-26T11:51:45;16.20;99.90
12815;DHT22;6472;52.328;13.070;2022-10-26T11:54:19;16.30;99.90
12815;DHT22;6472;52.328;13.070;2022-10-26T11:56:51;16.30;99.90
12815;DHT22;6472;52.328;13.070;2022-10-26T11:59:21;16.30;99.90
12815;DHT22;6472;52.328;13.070;2022-10-26T12:02:01;16.30;99.90
12815;DHT22;6472;52.328;13.070;2022-10-26T12:04:34;16.30;99.90
12815;DHT22;6472;52.328;13.070;2022-10-26T12:07:08;16.40;99.90
12815;DHT22;6472;52.328;13.070;2022-10-26T12:09:37;16.40;99.90
12815;DHT22;6472;52.328;13.070;2022-10-26T12:12:10;16.50;99.90
12815;DHT22;6472;52.328;13.070;2022-10-26T12:14:43;16.60;99.90
12815;DHT22;6472;52.328;13.070;2022-10-26T12:17:16;16.60;99.90
12815;DHT22;6472;52.328;13.070;2022-10-26T12:19:48;16.60;99.90
12815;DHT22;6472;52.328;13.070;2022-10-26T12:22:19;16.60;99.90
12815;DHT22;6472;52.328;13.070;2022-10-26T12:25:07;16.60;99.90
12815;DHT22;6472;52.328;13.070;2022-10-26T12:27:55;16.60;99.90
12815;DHT22;6472;52.328;13.070;2022-10-26T12:30:29;16.60;99.90
12815;DHT22;6472;52.328;13.070;2022-10-26T12:32:59;16.60;99.90
12815;DHT22;6472;52.328;13.070;2022-10-26T12:35:36;16.60;99.90
12815;DHT22;6472;52.328;13.070;2022-10-26T12:41:23;16.60;99.90
12815;DHT22;6472;52.328;13.070;2022-10-26T12:44:01;16.50;99.90
12815;DHT22;6472;52.328;13.070;2022-10-26T12:46:39;16.50;99.90
12815;DHT22;6472;52.328;13.070;2022-10-26T12:52:24;16.50;99.90
12815;DHT22;6472;52.328;13.070;2022-10-26T12:55:15;16.50;99.90
12815;DHT22;6472;52.328;13.070;2022-10-26T12:57:51;16.50;99.90
12815;DHT22;6472;52.328;13.070;2022-10-26T13:00:24;16.40;99.90
12815;DHT22;6472;52.328;13.070;2022-10-26T13:03:05;16.40;99.90
12815;DHT22;6472;52.328;13.070;2022-10-26T13:06:06;16.50;99.90
12815;DHT22;6472;52.328;13.070;2022-10-26T13:08:41;16.50;99.90
12815;DHT22;6472;52.328;13.070;2022-10-26T13:11:16;16.50;99.90
12815;DHT22;6472;52.328;13.070;2022-10-26T13:13:51;16.60;99.90
12815;DHT22;6472;52.328;13.070;2022-10-26T13:16:21;16.70;99.90
12815;DHT22;6472;52.328;13.070;2022-10-26T13:18:51;16.70;99.90
12815;DHT22;6472;52.328;13.070;2022-10-26T13:21:20;16.70;99.90
12815;DHT22;6472;52.328;13.070;2022-10-26T13:23:57;16.70;99.90
12815;DHT22;6472;52.328;13.070;2022-10-26T13:26:29;16.70;99.90
12815;DHT22;6472;52.328;13.070;2022-10-26T13:28:58;16.70;99.90
12815;DHT22;6472;52.328;13.070;2022-10-26T13:31:52;16.70;99.90
12815;DHT22;6472;52.328;13.070;2022-10-26T13:34:24;16.70;99.90
12815;DHT22;6472;52.328;13.070;2022-10-26T13:37:02;16.60;99.90
12815;DHT22;6472;52.328;13.070;2022-10-26T13:39:35;16.60;99.90
12815;DHT22;6472;52.328;13.070;2022-10-26T13:42:05;16.50;99.90
12815;DHT22;6472;52.328;13.070;2022-10-26T13:44:38;16.40;99.90
12815;DHT22;6472;52.328;13.070;2022-10-26T13:47:09;16.50;99.90
12815;DHT22;6472;52.328;13.070;2022-10-26T13:49:40;16.50;99.90
12815;DHT22;6472;52.328;13.070;2022-10-26T13:52:14;16.50;99.90
12815;DHT22;6472;52.328;13.070;2022-10-26T13:54:46;16.50;99.90
12815;DHT22;6472;52.328;13.070;2022-10-26T13:57:18;16.50;99.90
12815;DHT22;6472;52.328;13.070;2022-10-26T13:59:47;16.40;99.90
12815;DHT22;6472;52.328;13.070;2022-10-26T14:02:18;16.30;99.90
12815;DHT22;6472;52.328;13.070;2022-10-26T14:04:52;16.30;99.90
12815;DHT22;6472;52.328;13.070;2022-10-26T14:07:24;16.30;99.90
12815;DHT22;6472;52.328;13.070;2022-10-26T14:09:55;16.20;99.90
12815;DHT22;6472;52.328;13.070;2022-10-26T14:12:25;16.20;99.90
12815;DHT22;6472;52.328;13.070;2022-10-26T14:15:00;16.10;99.90
12815;DHT22;6472;52.328;13.070;2022-10-26T14:17:29;16.10;99.90
12815;DHT22;6472;52.328;13.070;2022-10-26T14:19:57;16.00;99.90
12815;DHT22;6472;52.328;13.070;2022-10-26T14:22:27;16.00;99.90
12815;DHT22;6472;52.328;13.070;2022-10-26T14:24:58;16.00;99.90
12815;DHT22;6472;52.328;13.070;2022-10-26T14:27:30;15.90;99.90
12815;DHT22;6472;52.328;13.070;2022-10-26T14:29:59;15.90;99.90
12815;DHT22;6472;52.328;13.070;2022-10-26T14:32:48;15.80;99.90
12815;DHT22;6472;52.328;13.070;2022-10-26T14:35:18;15.70;99.90
12815;DHT22;6472;52.328;13.070;2022-10-26T14:37:51;15.60;99.90
12815;DHT22;6472;52.328;13.070;2022-10-26T14:40:23;15.50;99.90
12815;DHT22;6472;52.328;13.070;2022-10-26T14:42:53;15.40;99.90
12815;DHT22;6472;52.328;13.070;2022-10-26T14:45:27;15.30;99.90
12815;DHT22;6472;52.328;13.070;2022-10-26T14:48:23;15.30;99.90
12815;DHT22;6472;52.328;13.070;2022-10-26T14:51:02;15.20;99.90
12815;DHT22;6472;52.328;13.070;2022-10-26T14:53:36;15.30;99.90
12815;DHT22;6472;52.328;13.070;2022-10-26T14:56:23;15.20;99.90
12815;DHT22;6472;52.328;13.070;2022-10-26T14:58:52;15.30;99.90
12815;DHT22;6472;52.328;13.070;2022-10-26T15:01:33;15.30;99.90
12815;DHT22;6472;52.328;13.070;2022-10-26T15:04:04;15.30;99.90
12815;DHT22;6472;52.328;13.070;2022-10-26T15:06:41;15.30;99.90
12815;DHT22;6472;52.328;13.070;2022-10-26T15:09:29;15.30;99.90
12815;DHT22;6472;52.328;13.070;2022-10-26T15:12:00;15.30;99.90
12815;DHT22;6472;52.328;13.070;2022-10-26T15:14:31;15.30;99.90
12815;DHT22;6472;52.328;13.070;2022-10-26T15:17:00;15.30;99.90
12815;DHT22;6472;52.328;13.070;2022-10-26T15:19:28;15.20;99.90
12815;DHT22;6472;52.328;13.070;2022-10-26T15:21:57;15.20;99.90
12815;DHT22;6472;52.328;13.070;2022-10-26T15:24:29;15.10;99.90
12815;DHT22;6472;52.328;13.070;2022-10-26T15:27:11;15.00;99.90
12815;DHT22;6472;52.328;13.070;2022-10-26T15:29:43;14.90;99.90
12815;DHT22;6472;52.328;13.070;2022-10-26T15:32:32;14.80;99.90
12815;DHT22;6472;52.328;13.070;2022-10-26T15:35:28;14.60;99.90
12815;DHT22;6472;52.328;13.070;2022-10-26T15:37:57;14.40;99.90
12815;DHT22;6472;52.328;13.070;2022-10-26T15:40:28;14.40;99.90
12815;DHT22;6472;52.328;13.070;2022-10-26T15:42:59;14.20;99.90
12815;DHT22;6472;52.328;13.070;2022-10-26T15:45:30;14.10;99.90
12815;DHT22;6472;52.328;13.070;2022-10-26T15:47:59;13.90;99.90
12815;DHT22;6472;52.328;13.070;2022-10-26T15:50:30;13.80;99.90
12815;DHT22;6472;52.328;13.070;2022-10-26T15:53:00;13.60;99.90
12815;DHT22;6472;52.328;13.070;2022-10-26T15:55:29;13.50;99.90
12815;DHT22;6472;52.328;13.070;2022-10-26T15:57:59;13.40;99.90
12815;DHT22;6472;52.328;13.070;2022-10-26T16:00:27;13.20;99.90
12815;DHT22;6472;52.328;13.070;2022-10-26T16:02:55;13.10;99.90
12815;DHT22;6472;52.328;13.070;2022-10-26T16:05:23;13.00;99.90
12815;DHT22;6472;52.328;13.070;2022-10-26T16:07:51;12.90;99.90
12815;DHT22;6472;52.328;13.070;2022-10-26T16:10:21;12.80;99.90
12815;DHT22;6472;52.328;13.070;2022-10-26T16:12:51;12.80;99.90
12815;DHT22;6472;52.328;13.070;2022-10-26T16:15:22;12.70;99.90
12815;DHT22;6472;52.328;13.070;2022-10-26T16:17:50;12.70;99.90
12815;DHT22;6472;52.328;13.070;2022-10-26T16:20:21;12.60;99.90
12815;DHT22;6472;52.328;13.070;2022-10-26T16:22:51;12.60;99.90
12815;DHT22;6472;52.328;13.070;2022-10-26T16:25:22;12.60;99.90